Weather History for KBWD - July, 2013

Change the Weather History Date:

Tuesday, July 30, 2013

  Actual Average (KABI) Record (KABI)
Temperature  
Mean Temperature 88 °F 84 °F  
Max Temperature 98 °F 95 °F 106 °F (1912)
Min Temperature 77 °F 73 °F 63 °F (1972)
Degree Days  
Heating Degree Days 0 0  
Month to date heating degree days 0  
Since 1 June heating degree days 1  
Since 1 July heating degree days 0  
Cooling Degree Days 22 19  
Month to date cooling degree days 543  
Year to date cooling degree days 1375  
Since 1 June cooling degree days 978  
Growing Degree Days 38 (Base 50)    
Moisture  
Dew Point 65 °F    
Average Humidity 51    
Maximum Humidity 78    
Minimum Humidity 27    
Precipitation  
Precipitation 0.02 in 0.06 in 1.81 in (1990)
Month to date precipitation 1.81  
Year to date precipitation 14.31  
Sea Level Pressure  
Sea Level Pressure 30.03 in    
Wind  
Wind Speed 12 mph (South)    
Max Wind Speed 16 mph    
Max Gust Speed 22 mph    
Visibility 10 miles    
Events Rain    
T = Trace of Precipitation, MM = Missing Value Source: NWS Daily Summary

Daily Weather History Graph

Daily Weather History Graph

Search for Another Location

Airport or City:

Trip Planner

Search our weather history database for the weather conditions in past years. The results will help you decide how hot, cold, wet, or windy it might be!

Date:

Astronomy

Jul. 30, 2013 Rise Set
Actual Time 6:50 AM CDT 8:33 PM CDT
Civil Twilight 6:23 AM CDT 9:00 PM CDT
Nautical Twilight 5:51 AM CDT 9:32 PM CDT
Astronomical Twilight 5:17 AM CDT 10:06 PM CDT
Moon 1:06 AM CDT (7/30) 2:56 PM CDT (7/30)
Length of Visible Light 14h 36m
Length of Day
13h 43m
Last Quarter, 41% of the Moon is Illuminated
Jul 30
Last Quarter
Aug 6
New
Aug 14
First Quarter
Aug 20
Full
Aug 28
Last Quarter

Hourly Weather History & Observations

Time (CDT) Temp. Heat Index Dew Point Humidity Pressure Visibility Wind Dir Wind Speed Gust Speed Precip Events Conditions
12:15 AM 84.2 °F 85.0 °F 62.6 °F 48% 30.00 in 10.0 mi SSE 12.7 mph 18.4 mph N/A   Clear
12:35 AM 84.2 °F 85.0 °F 62.6 °F 48% 30.00 in 10.0 mi SSE 12.7 mph 20.7 mph N/A   Clear
12:55 AM 84.2 °F 85.0 °F 62.6 °F 48% 30.01 in 10.0 mi South 16.1 mph 21.9 mph N/A   Clear
1:15 AM 82.4 °F 83.9 °F 64.4 °F 54% 30.00 in 10.0 mi SSE 13.8 mph 18.4 mph N/A   Clear
1:35 AM 82.4 °F 83.9 °F 64.4 °F 54% 30.01 in 10.0 mi SSE 13.8 mph 21.9 mph N/A   Clear
1:55 AM 82.4 °F 84.6 °F 66.2 °F 58% 30.01 in 10.0 mi SSE 13.8 mph 19.6 mph N/A   Clear
2:15 AM 82.4 °F 84.6 °F 66.2 °F 58% 30.02 in 10.0 mi SSE 11.5 mph 19.6 mph N/A   Clear
2:35 AM 80.6 °F 83.2 °F 68.0 °F 65% 30.02 in 10.0 mi South 12.7 mph - N/A   Clear
2:55 AM 80.6 °F 83.2 °F 68.0 °F 65% 30.02 in 10.0 mi South 13.8 mph 19.6 mph N/A   Clear
3:15 AM 80.6 °F 83.2 °F 68.0 °F 65% 30.02 in 10.0 mi South 12.7 mph - N/A   Clear
3:35 AM 80.6 °F 83.2 °F 68.0 °F 65% 30.02 in 10.0 mi SSE 12.7 mph - N/A   Clear
3:55 AM 80.6 °F 83.2 °F 68.0 °F 65% 30.02 in 10.0 mi South 13.8 mph 20.7 mph N/A   Clear
4:15 AM 80.6 °F 83.2 °F 68.0 °F 65% 30.03 in 10.0 mi SSE 12.7 mph 19.6 mph N/A   Clear
4:35 AM 78.8 °F - 69.8 °F 74% 30.03 in 10.0 mi South 12.7 mph - N/A   Clear
4:55 AM 78.8 °F - 69.8 °F 74% 30.03 in 10.0 mi South 12.7 mph - N/A   Clear
5:15 AM 78.8 °F - 69.8 °F 74% 30.04 in 10.0 mi South 12.7 mph 17.3 mph N/A   Clear
5:35 AM 77.0 °F - 69.8 °F 78% 30.05 in 10.0 mi South 16.1 mph - N/A   Clear
5:55 AM 77.0 °F - 69.8 °F 78% 30.05 in 10.0 mi South 12.7 mph - N/A   Clear
6:15 AM 77.0 °F - 69.8 °F 78% 30.06 in 10.0 mi South 11.5 mph - N/A   Clear
6:35 AM 77.0 °F - 69.8 °F 78% 30.06 in 10.0 mi South 9.2 mph - N/A   Clear
6:55 AM 77.0 °F - 68.0 °F 74% 30.06 in 9.0 mi South 10.4 mph 16.1 mph N/A   Clear
7:15 AM 77.0 °F - 69.8 °F 78% 30.07 in 9.0 mi South 10.4 mph - N/A   Clear
7:35 AM 77.0 °F - 69.8 °F 78% 30.08 in 9.0 mi South 8.1 mph - N/A   Clear
7:55 AM 77.0 °F - 69.8 °F 78% 30.09 in 9.0 mi South 10.4 mph - N/A   Clear
8:15 AM 77.0 °F - 68.0 °F 74% 30.09 in 9.0 mi South 12.7 mph 18.4 mph N/A   Clear
8:35 AM 78.8 °F - 68.0 °F 69% 30.09 in 9.0 mi South 11.5 mph - N/A   Clear
8:55 AM 78.8 °F - 68.0 °F 69% 30.09 in 10.0 mi South 15.0 mph 19.6 mph N/A   Clear
9:15 AM 78.8 °F - 68.0 °F 69% 30.10 in 10.0 mi South 12.7 mph 18.4 mph N/A   Clear
9:35 AM 80.6 °F 83.2 °F 68.0 °F 65% 30.10 in 10.0 mi South 10.4 mph 17.3 mph N/A   Clear
9:55 AM 80.6 °F 83.2 °F 68.0 °F 65% 30.10 in 10.0 mi South 13.8 mph 17.3 mph N/A   Clear
10:15 AM 80.6 °F 83.2 °F 68.0 °F 65% 30.10 in 9.0 mi South 12.7 mph 17.3 mph N/A   Clear
10:35 AM 82.4 °F 85.4 °F 68.0 °F 62% 30.10 in 10.0 mi South 15.0 mph - N/A   Clear
10:55 AM 84.2 °F 87.3 °F 68.0 °F 58% 30.09 in 10.0 mi South 11.5 mph 17.3 mph N/A   Clear
11:15 AM 84.2 °F 87.3 °F 68.0 °F 58% 30.10 in 10.0 mi SSW 15.0 mph - N/A   Clear
11:55 AM 87.8 °F 91.4 °F 68.0 °F 52% 30.08 in 10.0 mi South 16.1 mph - N/A   Clear
12:15 PM 89.6 °F 93.4 °F 68.0 °F 49% 30.08 in 10.0 mi SW 10.4 mph - N/A   Clear
12:35 PM 89.6 °F 93.4 °F 68.0 °F 49% 30.07 in 10.0 mi South 11.5 mph - N/A   Clear
1:15 PM 93.2 °F 97.7 °F 68.0 °F 44% 30.06 in 10.0 mi South 15.0 mph 20.7 mph N/A   Clear
1:35 PM 91.4 °F 95.4 °F 68.0 °F 46% 30.05 in 10.0 mi SSW 15.0 mph 20.7 mph N/A   Clear
1:55 PM 93.2 °F 96.2 °F 66.2 °F 41% 30.04 in 10.0 mi SSW 16.1 mph 21.9 mph N/A   Clear
2:15 PM 96.8 °F 100.7 °F 66.2 °F 37% 30.03 in 10.0 mi South 12.7 mph 20.7 mph N/A   Clear
2:35 PM 95.0 °F 98.5 °F 66.2 °F 39% 30.03 in 10.0 mi SSW 16.1 mph 20.7 mph N/A   Clear
2:55 PM 95.0 °F 97.0 °F 64.4 °F 36% 30.03 in 10.0 mi SSW 15.0 mph - N/A   Clear
3:15 PM 95.0 °F 97.0 °F 64.4 °F 36% 30.02 in 10.0 mi SSW 10.4 mph 20.7 mph N/A   Clear
3:35 PM 95.0 °F 96.0 °F 62.6 °F 34% 30.02 in 10.0 mi SSW 11.5 mph 17.3 mph N/A   Clear
3:55 PM 98.6 °F 100.0 °F 62.6 °F 30% 30.01 in 10.0 mi South 11.5 mph 18.4 mph N/A   Clear
4:15 PM 98.6 °F 100.0 °F 62.6 °F 30% 30.01 in 10.0 mi SSW 9.2 mph - N/A   Clear
4:35 PM 98.6 °F 98.5 °F 59.0 °F 27% 30.00 in 10.0 mi South 9.2 mph 16.1 mph N/A   Clear
4:55 PM 98.6 °F 98.5 °F 59.0 °F 27% 29.99 in 10.0 mi SSE 8.1 mph - N/A   Clear
5:15 PM 98.6 °F 98.5 °F 59.0 °F 27% 29.99 in 10.0 mi SSW 8.1 mph - N/A Rain Light Rain
5:35 PM 98.6 °F 98.5 °F 59.0 °F 27% 29.99 in 10.0 mi SSW 8.1 mph - 0.01 in Rain Light Rain
5:55 PM 98.6 °F 98.5 °F 59.0 °F 27% 29.98 in 10.0 mi SSE 10.4 mph - 0.02 in Rain Light Rain
6:15 PM 98.6 °F 98.5 °F 59.0 °F 27% 29.98 in 10.0 mi SSE 6.9 mph - N/A Rain Light Rain
6:35 PM 98.6 °F 98.5 °F 59.0 °F 27% 29.98 in 10.0 mi SE 10.4 mph 16.1 mph N/A Rain Light Rain
6:55 PM 98.6 °F 98.5 °F 59.0 °F 27% 29.98 in 10.0 mi SE 8.1 mph - N/A   Clear
7:15 PM 96.8 °F 96.2 °F 59.0 °F 28% 29.98 in 10.0 mi SE 8.1 mph - N/A   Clear
7:35 PM 95.0 °F 94.4 °F 59.0 °F 30% 29.98 in 10.0 mi SE 6.9 mph - N/A   Clear
7:55 PM 93.2 °F 94.1 °F 62.6 °F 36% 29.99 in 10.0 mi SE 10.4 mph - N/A   Clear
8:15 PM 93.2 °F 94.1 °F 62.6 °F 36% 29.99 in 10.0 mi SE 9.2 mph - N/A   Clear
8:35 PM 91.4 °F 92.1 °F 62.6 °F 38% 29.99 in 10.0 mi SE 8.1 mph - N/A   Clear
8:55 PM 89.6 °F 90.1 °F 62.6 °F 40% 30.00 in 10.0 mi SE 10.4 mph - N/A   Clear
9:15 PM 89.6 °F 90.1 °F 62.6 °F 40% 30.01 in 10.0 mi SE 9.2 mph - N/A   Clear
9:35 PM 89.6 °F 90.1 °F 62.6 °F 40% 30.02 in 10.0 mi SE 8.1 mph - N/A   Clear
9:55 PM 89.6 °F 90.1 °F 62.6 °F 40% 30.03 in 10.0 mi SE 10.4 mph - N/A   Clear
10:15 PM 87.8 °F 88.5 °F 62.6 °F 43% 30.03 in 10.0 mi SE 10.4 mph - N/A   Clear
10:35 PM 87.8 °F 87.6 °F 60.8 °F 40% 30.03 in 10.0 mi SE 9.2 mph - N/A   Clear
10:55 PM 86.0 °F 86.1 °F 60.8 °F 43% 30.04 in 10.0 mi SE 10.4 mph - N/A   Clear
11:15 PM 86.0 °F 85.4 °F 59.0 °F 40% 30.03 in 10.0 mi SE 10.4 mph - N/A   Clear
11:35 PM 86.0 °F 86.1 °F 60.8 °F 43% 30.03 in 10.0 mi SE 9.2 mph - N/A   Clear
11:55 PM 86.0 °F 86.1 °F 60.8 °F 43% 30.03 in 10.0 mi SSE 9.2 mph - N/A   Clear